KBDU

Details ICAO KBDU (WBU)
Name BOULDER MUNI
Region United States
Timezone America/Denver (UTC-6.0)
Plans Departing 48
Arriving 58
Stats Elevation 5,288 ft / 1,612 m (AMSL)
Location 40.038700° -105.227000°
Runways 2
Magnetic Variation 8.237° E
Sunrise 2019-03-23 13:01:02 UTC / 2019-03-23 07:01:02 Local
Sunset 2019-03-24 01:16:31 UTC / 2019-03-23 19:16:31 Local
Advertisement - Login to hide

Runways

ID Width Length Bearing (true/mag) Surface Threshold Overrun Markings Lighting
08L 25 ft / 8 m 4,121 ft / 1,256 m 92.83° / 84.59° DIRT 200 ft / 61 m 0 ft / 0 m VISUAL
08R 75 ft / 23 m 4,121 ft / 1,256 m 92.81° / 84.58° ASPHALT 200 ft / 61 m 0 ft / 0 m APP EDGE THRESHOLD
26L 75 ft / 23 m 4,121 ft / 1,256 m 272.82° / 264.59° ASPHALT 200 ft / 61 m 0 ft / 0 m APP EDGE THRESHOLD
26R 25 ft / 8 m 4,121 ft / 1,256 m 272.84° / 264.60° DIRT 0 ft / 0 m 0 ft / 0 m VISUAL

Map

Weather


0- 5 10 15 20 25 30 35+ Temperature / °C

Clouds and Precipitation
Forecast for 2019-03-23 18:00 UTC. Updated 34 minutes ago

Ground ~20,000 ft ~40,000 ft Winds

METAR

KBDU 231554Z AUTO 13006KT 10SM OVC075 06/01 A2991 RMK AO2

TAF

Not found

Frequencies

Unicom 122.70 MHz CTAF/UNICOM
Recorded 118.82 MHz AWOS 3
Warning: Do not use this data for real-world aviation or navigation. No guarantee of current accuracy is given.